sensor_id;sensor_type;location;lat;lon;timestamp;temperature;humidity
48936;DHT22;34745;52.276;10.528;2022-08-21T00:01:38;19.80;1.00
48936;DHT22;34745;52.276;10.528;2022-08-21T00:04:06;19.70;1.00
48936;DHT22;34745;52.276;10.528;2022-08-21T00:06:35;19.70;1.00
48936;DHT22;34745;52.276;10.528;2022-08-21T00:09:05;19.70;1.00
48936;DHT22;34745;52.276;10.528;2022-08-21T00:11:33;19.60;1.00
48936;DHT22;34745;52.276;10.528;2022-08-21T00:14:02;19.60;1.00
48936;DHT22;34745;52.276;10.528;2022-08-21T00:16:29;19.60;1.00
48936;DHT22;34745;52.276;10.528;2022-08-21T00:18:56;19.60;1.00
48936;DHT22;34745;52.276;10.528;2022-08-21T00:21:23;19.50;1.00
48936;DHT22;34745;52.276;10.528;2022-08-21T00:23:53;19.60;1.00
48936;DHT22;34745;52.276;10.528;2022-08-21T00:26:20;19.60;1.00
48936;DHT22;34745;52.276;10.528;2022-08-21T00:28:47;19.60;1.00
48936;DHT22;34745;52.276;10.528;2022-08-21T00:31:16;19.50;1.00
48936;DHT22;34745;52.276;10.528;2022-08-21T00:33:43;19.50;1.00
48936;DHT22;34745;52.276;10.528;2022-08-21T00:36:12;19.40;1.00
48936;DHT22;34745;52.276;10.528;2022-08-21T00:38:39;19.40;1.00
48936;DHT22;34745;52.276;10.528;2022-08-21T00:41:09;19.30;1.00
48936;DHT22;34745;52.276;10.528;2022-08-21T00:43:56;19.20;1.00
48936;DHT22;34745;52.276;10.528;2022-08-21T00:49:13;19.30;1.00
48936;DHT22;34745;52.276;10.528;2022-08-21T00:51:45;19.30;1.00
48936;DHT22;34745;52.276;10.528;2022-08-21T00:54:15;19.30;1.00
48936;DHT22;34745;52.276;10.528;2022-08-21T00:56:49;19.30;1.00
48936;DHT22;34745;52.276;10.528;2022-08-21T00:59:18;19.30;1.00
48936;DHT22;34745;52.276;10.528;2022-08-21T01:01:46;19.30;1.00
48936;DHT22;34745;52.276;10.528;2022-08-21T01:04:13;19.20;1.00
48936;DHT22;34745;52.276;10.528;2022-08-21T01:06:41;19.20;1.00
48936;DHT22;34745;52.276;10.528;2022-08-21T01:09:08;19.30;1.00
48936;DHT22;34745;52.276;10.528;2022-08-21T01:11:36;19.30;1.00
48936;DHT22;34745;52.276;10.528;2022-08-21T01:14:04;19.20;1.00
48936;DHT22;34745;52.276;10.528;2022-08-21T01:16:32;19.20;1.00
48936;DHT22;34745;52.276;10.528;2022-08-21T01:18:59;19.10;1.00
48936;DHT22;34745;52.276;10.528;2022-08-21T01:21:28;19.10;1.00
48936;DHT22;34745;52.276;10.528;2022-08-21T01:23:56;19.10;1.00
48936;DHT22;34745;52.276;10.528;2022-08-21T01:26:25;19.00;1.00
48936;DHT22;34745;52.276;10.528;2022-08-21T01:29:03;19.00;1.00
48936;DHT22;34745;52.276;10.528;2022-08-21T01:31:32;18.90;1.00
48936;DHT22;34745;52.276;10.528;2022-08-21T01:34:00;18.90;1.00
48936;DHT22;34745;52.276;10.528;2022-08-21T01:36:29;18.80;1.00
48936;DHT22;34745;52.276;10.528;2022-08-21T01:38:56;18.70;1.00
48936;DHT22;34745;52.276;10.528;2022-08-21T01:41:23;18.60;1.00
48936;DHT22;34745;52.276;10.528;2022-08-21T01:43:50;18.70;1.00
48936;DHT22;34745;52.276;10.528;2022-08-21T01:46:17;18.80;1.00
48936;DHT22;34745;52.276;10.528;2022-08-21T01:48:45;18.90;1.00
48936;DHT22;34745;52.276;10.528;2022-08-21T01:51:12;18.90;1.00
48936;DHT22;34745;52.276;10.528;2022-08-21T01:53:40;18.80;1.00
48936;DHT22;34745;52.276;10.528;2022-08-21T01:56:10;18.80;1.00
48936;DHT22;34745;52.276;10.528;2022-08-21T01:58:39;18.80;1.00
48936;DHT22;34745;52.276;10.528;2022-08-21T02:01:06;18.80;1.00
48936;DHT22;34745;52.276;10.528;2022-08-21T02:03:33;19.00;1.00
48936;DHT22;34745;52.276;10.528;2022-08-21T02:06:02;19.00;1.00
48936;DHT22;34745;52.276;10.528;2022-08-21T02:08:29;18.90;1.00
48936;DHT22;34745;52.276;10.528;2022-08-21T02:10:58;18.90;1.00
48936;DHT22;34745;52.276;10.528;2022-08-21T02:13:25;18.90;1.00
48936;DHT22;34745;52.276;10.528;2022-08-21T02:15:53;18.60;1.00
48936;DHT22;34745;52.276;10.528;2022-08-21T02:18:19;18.60;1.00
48936;DHT22;34745;52.276;10.528;2022-08-21T02:20:48;18.40;1.00
48936;DHT22;34745;52.276;10.528;2022-08-21T02:23:22;18.40;1.00
48936;DHT22;34745;52.276;10.528;2022-08-21T02:25:53;18.30;1.00
48936;DHT22;34745;52.276;10.528;2022-08-21T02:28:21;18.20;1.00
48936;DHT22;34745;52.276;10.528;2022-08-21T02:30:48;18.20;1.00
48936;DHT22;34745;52.276;10.528;2022-08-21T02:33:16;18.30;1.00
48936;DHT22;34745;52.276;10.528;2022-08-21T02:35:45;18.20;1.00
48936;DHT22;34745;52.276;10.528;2022-08-21T02:38:14;18.20;1.00
48936;DHT22;34745;52.276;10.528;2022-08-21T02:40:45;18.10;1.00
48936;DHT22;34745;52.276;10.528;2022-08-21T02:43:17;18.00;1.00
48936;DHT22;34745;52.276;10.528;2022-08-21T02:45:46;17.90;1.00
48936;DHT22;34745;52.276;10.528;2022-08-21T02:48:17;18.10;1.00
48936;DHT22;34745;52.276;10.528;2022-08-21T02:50:46;18.20;1.00
48936;DHT22;34745;52.276;10.528;2022-08-21T02:53:15;18.20;1.00
48936;DHT22;34745;52.276;10.528;2022-08-21T02:55:44;18.20;1.00
48936;DHT22;34745;52.276;10.528;2022-08-21T02:58:13;18.00;1.00
48936;DHT22;34745;52.276;10.528;2022-08-21T03:00:41;18.00;1.00
48936;DHT22;34745;52.276;10.528;2022-08-21T03:03:10;18.00;1.00
48936;DHT22;34745;52.276;10.528;2022-08-21T03:05:37;17.90;1.00
48936;DHT22;34745;52.276;10.528;2022-08-21T03:08:06;17.80;1.00
48936;DHT22;34745;52.276;10.528;2022-08-21T03:10:39;17.80;1.00
48936;DHT22;34745;52.276;10.528;2022-08-21T03:13:07;17.50;1.00
48936;DHT22;34745;52.276;10.528;2022-08-21T03:15:34;17.50;1.00
48936;DHT22;34745;52.276;10.528;2022-08-21T03:18:01;17.50;1.00
48936;DHT22;34745;52.276;10.528;2022-08-21T03:20:32;17.40;1.00
48936;DHT22;34745;52.276;10.528;2022-08-21T03:23:00;17.40;1.00
48936;DHT22;34745;52.276;10.528;2022-08-21T03:25:29;17.30;1.00
48936;DHT22;34745;52.276;10.528;2022-08-21T03:28:09;17.30;1.00
48936;DHT22;34745;52.276;10.528;2022-08-21T03:30:39;17.30;1.00
48936;DHT22;34745;52.276;10.528;2022-08-21T03:33:06;17.30;1.00
48936;DHT22;34745;52.276;10.528;2022-08-21T03:35:34;17.30;1.00
48936;DHT22;34745;52.276;10.528;2022-08-21T03:38:02;17.20;1.00
48936;DHT22;34745;52.276;10.528;2022-08-21T03:40:29;17.20;1.00
48936;DHT22;34745;52.276;10.528;2022-08-21T03:42:56;17.20;1.00
48936;DHT22;34745;52.276;10.528;2022-08-21T03:45:23;17.20;1.00
48936;DHT22;34745;52.276;10.528;2022-08-21T03:47:52;17.20;1.00
48936;DHT22;34745;52.276;10.528;2022-08-21T03:50:20;17.30;1.00
48936;DHT22;34745;52.276;10.528;2022-08-21T03:52:48;17.30;1.00
48936;DHT22;34745;52.276;10.528;2022-08-21T03:55:16;17.20;1.00
48936;DHT22;34745;52.276;10.528;2022-08-21T03:57:43;17.20;1.00
48936;DHT22;34745;52.276;10.528;2022-08-21T04:00:12;17.20;1.00
48936;DHT22;34745;52.276;10.528;2022-08-21T04:02:40;17.20;1.00
48936;DHT22;34745;52.276;10.528;2022-08-21T04:05:07;17.10;1.00
48936;DHT22;34745;52.276;10.528;2022-08-21T04:07:34;17.10;1.00
48936;DHT22;34745;52.276;10.528;2022-08-21T04:10:06;17.10;1.00
48936;DHT22;34745;52.276;10.528;2022-08-21T04:12:33;17.10;1.00
48936;DHT22;34745;52.276;10.528;2022-08-21T04:15:00;17.10;1.00
48936;DHT22;34745;52.276;10.528;2022-08-21T04:17:28;17.20;1.00
48936;DHT22;34745;52.276;10.528;2022-08-21T04:19:55;17.10;1.00
48936;DHT22;34745;52.276;10.528;2022-08-21T04:22:23;17.20;1.00
48936;DHT22;34745;52.276;10.528;2022-08-21T04:24:50;17.20;1.00
48936;DHT22;34745;52.276;10.528;2022-08-21T04:27:18;17.20;1.00
48936;DHT22;34745;52.276;10.528;2022-08-21T04:29:45;17.20;1.00
48936;DHT22;34745;52.276;10.528;2022-08-21T04:32:12;17.20;1.00
48936;DHT22;34745;52.276;10.528;2022-08-21T04:34:39;17.20;1.00
48936;DHT22;34745;52.276;10.528;2022-08-21T04:37:06;17.10;1.00
48936;DHT22;34745;52.276;10.528;2022-08-21T04:39:33;17.10;1.00
48936;DHT22;34745;52.276;10.528;2022-08-21T04:42:00;17.10;1.00
48936;DHT22;34745;52.276;10.528;2022-08-21T04:44:28;16.90;1.00
48936;DHT22;34745;52.276;10.528;2022-08-21T04:46:55;16.90;1.00
48936;DHT22;34745;52.276;10.528;2022-08-21T04:49:22;16.90;1.00
48936;DHT22;34745;52.276;10.528;2022-08-21T04:51:49;16.80;1.00
48936;DHT22;34745;52.276;10.528;2022-08-21T04:54:19;16.70;1.00
48936;DHT22;34745;52.276;10.528;2022-08-21T04:56:49;16.80;1.00
48936;DHT22;34745;52.276;10.528;2022-08-21T04:59:20;16.90;1.00
48936;DHT22;34745;52.276;10.528;2022-08-21T05:01:49;16.90;1.00
48936;DHT22;34745;52.276;10.528;2022-08-21T05:04:22;16.90;1.00
48936;DHT22;34745;52.276;10.528;2022-08-21T05:06:53;16.90;1.00
48936;DHT22;34745;52.276;10.528;2022-08-21T05:09:21;17.00;1.00
48936;DHT22;34745;52.276;10.528;2022-08-21T05:11:48;17.10;1.00
48936;DHT22;34745;52.276;10.528;2022-08-21T05:14:17;17.10;1.00
48936;DHT22;34745;52.276;10.528;2022-08-21T05:16:44;17.10;1.00
48936;DHT22;34745;52.276;10.528;2022-08-21T05:19:13;17.00;1.00
48936;DHT22;34745;52.276;10.528;2022-08-21T05:21:42;17.10;1.00
48936;DHT22;34745;52.276;10.528;2022-08-21T05:24:10;17.00;1.00
48936;DHT22;34745;52.276;10.528;2022-08-21T05:26:38;17.00;1.00
48936;DHT22;34745;52.276;10.528;2022-08-21T05:29:13;17.10;1.00
48936;DHT22;34745;52.276;10.528;2022-08-21T05:31:40;17.20;1.00
48936;DHT22;34745;52.276;10.528;2022-08-21T05:34:07;17.30;1.00
48936;DHT22;34745;52.276;10.528;2022-08-21T05:36:37;17.40;1.00
48936;DHT22;34745;52.276;10.528;2022-08-21T05:39:04;17.50;1.00
48936;DHT22;34745;52.276;10.528;2022-08-21T05:41:31;17.60;1.00
48936;DHT22;34745;52.276;10.528;2022-08-21T05:44:00;17.50;1.00
48936;DHT22;34745;52.276;10.528;2022-08-21T05:46:27;17.50;1.00
48936;DHT22;34745;52.276;10.528;2022-08-21T05:48:54;17.40;1.00
48936;DHT22;34745;52.276;10.528;2022-08-21T05:51:21;17.40;1.00
48936;DHT22;34745;52.276;10.528;2022-08-21T05:53:49;17.50;1.00
48936;DHT22;34745;52.276;10.528;2022-08-21T05:56:16;17.60;1.00
48936;DHT22;34745;52.276;10.528;2022-08-21T05:58:43;17.70;1.00
48936;DHT22;34745;52.276;10.528;2022-08-21T06:01:10;17.80;1.00
48936;DHT22;34745;52.276;10.528;2022-08-21T06:03:40;17.90;1.00
48936;DHT22;34745;52.276;10.528;2022-08-21T06:06:07;18.00;1.00
48936;DHT22;34745;52.276;10.528;2022-08-21T06:08:34;18.00;1.00
48936;DHT22;34745;52.276;10.528;2022-08-21T06:11:03;18.00;1.00
48936;DHT22;34745;52.276;10.528;2022-08-21T06:13:31;18.00;1.00
48936;DHT22;34745;52.276;10.528;2022-08-21T06:16:03;18.20;1.00
48936;DHT22;34745;52.276;10.528;2022-08-21T06:18:31;18.50;1.00
48936;DHT22;34745;52.276;10.528;2022-08-21T06:20:58;18.60;1.00
48936;DHT22;34745;52.276;10.528;2022-08-21T06:23:26;18.80;1.00
48936;DHT22;34745;52.276;10.528;2022-08-21T06:25:59;18.80;1.00
48936;DHT22;34745;52.276;10.528;2022-08-21T06:28:27;18.50;1.00
48936;DHT22;34745;52.276;10.528;2022-08-21T06:30:54;18.40;1.00
48936;DHT22;34745;52.276;10.528;2022-08-21T06:33:22;18.30;1.00
48936;DHT22;34745;52.276;10.528;2022-08-21T06:35:48;18.30;1.00
48936;DHT22;34745;52.276;10.528;2022-08-21T06:38:16;18.30;1.00
48936;DHT22;34745;52.276;10.528;2022-08-21T06:40:43;18.40;1.00
48936;DHT22;34745;52.276;10.528;2022-08-21T06:43:15;18.30;1.00
48936;DHT22;34745;52.276;10.528;2022-08-21T06:45:44;18.50;1.00
48936;DHT22;34745;52.276;10.528;2022-08-21T06:48:12;18.60;1.00
48936;DHT22;34745;52.276;10.528;2022-08-21T06:50:45;18.60;1.00
48936;DHT22;34745;52.276;10.528;2022-08-21T06:53:14;18.70;1.00
48936;DHT22;34745;52.276;10.528;2022-08-21T06:55:42;18.80;1.00
48936;DHT22;34745;52.276;10.528;2022-08-21T06:58:10;19.00;1.00
48936;DHT22;34745;52.276;10.528;2022-08-21T07:00:39;19.00;1.00
48936;DHT22;34745;52.276;10.528;2022-08-21T07:03:16;19.10;1.00
48936;DHT22;34745;52.276;10.528;2022-08-21T07:05:43;19.20;1.00
48936;DHT22;34745;52.276;10.528;2022-08-21T07:08:10;19.00;1.00
48936;DHT22;34745;52.276;10.528;2022-08-21T07:10:37;19.10;1.00
48936;DHT22;34745;52.276;10.528;2022-08-21T07:13:04;19.10;1.00
48936;DHT22;34745;52.276;10.528;2022-08-21T07:15:32;19.20;1.00
48936;DHT22;34745;52.276;10.528;2022-08-21T07:17:59;19.20;1.00
48936;DHT22;34745;52.276;10.528;2022-08-21T07:20:29;19.30;1.00
48936;DHT22;34745;52.276;10.528;2022-08-21T07:22:59;19.50;1.00
48936;DHT22;34745;52.276;10.528;2022-08-21T07:25:27;19.60;1.00
48936;DHT22;34745;52.276;10.528;2022-08-21T07:27:55;19.70;1.00
48936;DHT22;34745;52.276;10.528;2022-08-21T07:30:22;19.60;1.00
48936;DHT22;34745;52.276;10.528;2022-08-21T07:32:50;19.70;1.00
48936;DHT22;34745;52.276;10.528;2022-08-21T07:35:17;19.90;1.00
48936;DHT22;34745;52.276;10.528;2022-08-21T07:37:46;20.00;1.00
48936;DHT22;34745;52.276;10.528;2022-08-21T07:40:14;20.10;1.00
48936;DHT22;34745;52.276;10.528;2022-08-21T07:42:42;20.10;1.00
48936;DHT22;34745;52.276;10.528;2022-08-21T07:45:10;20.10;1.00
48936;DHT22;34745;52.276;10.528;2022-08-21T07:47:37;20.10;1.00
48936;DHT22;34745;52.276;10.528;2022-08-21T07:50:09;20.00;1.00
48936;DHT22;34745;52.276;10.528;2022-08-21T07:52:36;20.10;1.00
48936;DHT22;34745;52.276;10.528;2022-08-21T07:55:06;20.10;1.00
48936;DHT22;34745;52.276;10.528;2022-08-21T07:57:33;20.30;1.00
48936;DHT22;34745;52.276;10.528;2022-08-21T08:00:01;20.50;1.00
48936;DHT22;34745;52.276;10.528;2022-08-21T08:02:29;20.60;1.00
48936;DHT22;34745;52.276;10.528;2022-08-21T08:04:59;20.90;1.00
48936;DHT22;34745;52.276;10.528;2022-08-21T08:07:27;20.80;1.00
48936;DHT22;34745;52.276;10.528;2022-08-21T08:09:54;20.80;1.00
48936;DHT22;34745;52.276;10.528;2022-08-21T08:12:22;20.90;1.00
48936;DHT22;34745;52.276;10.528;2022-08-21T08:14:52;20.90;1.00
48936;DHT22;34745;52.276;10.528;2022-08-21T08:17:19;20.90;1.00
48936;DHT22;34745;52.276;10.528;2022-08-21T08:19:50;21.00;1.00
48936;DHT22;34745;52.276;10.528;2022-08-21T08:22:19;21.10;1.00
48936;DHT22;34745;52.276;10.528;2022-08-21T08:24:47;21.10;1.00
48936;DHT22;34745;52.276;10.528;2022-08-21T08:27:15;21.10;1.00
48936;DHT22;34745;52.276;10.528;2022-08-21T08:29:44;21.10;1.00
48936;DHT22;34745;52.276;10.528;2022-08-21T08:32:11;21.10;1.00
48936;DHT22;34745;52.276;10.528;2022-08-21T08:34:39;21.10;1.00
48936;DHT22;34745;52.276;10.528;2022-08-21T08:37:07;21.30;1.00
48936;DHT22;34745;52.276;10.528;2022-08-21T08:39:35;21.50;1.00
48936;DHT22;34745;52.276;10.528;2022-08-21T08:42:06;21.50;1.00
48936;DHT22;34745;52.276;10.528;2022-08-21T08:44:57;21.50;1.00
48936;DHT22;34745;52.276;10.528;2022-08-21T08:47:26;21.30;1.00
48936;DHT22;34745;52.276;10.528;2022-08-21T08:49:58;21.30;1.00
48936;DHT22;34745;52.276;10.528;2022-08-21T08:52:29;21.40;1.00
48936;DHT22;34745;52.276;10.528;2022-08-21T08:55:02;21.40;1.00
48936;DHT22;34745;52.276;10.528;2022-08-21T08:57:31;21.50;1.00
48936;DHT22;34745;52.276;10.528;2022-08-21T09:00:03;21.50;1.00
48936;DHT22;34745;52.276;10.528;2022-08-21T09:02:41;21.50;1.00
48936;DHT22;34745;52.276;10.528;2022-08-21T09:05:12;21.60;1.00
48936;DHT22;34745;52.276;10.528;2022-08-21T09:07:51;21.70;1.00
48936;DHT22;34745;52.276;10.528;2022-08-21T09:10:36;21.70;1.00
48936;DHT22;34745;52.276;10.528;2022-08-21T09:13:13;21.50;1.00
48936;DHT22;34745;52.276;10.528;2022-08-21T09:15:50;21.70;1.00
48936;DHT22;34745;52.276;10.528;2022-08-21T09:18:32;21.80;1.00
48936;DHT22;34745;52.276;10.528;2022-08-21T09:21:08;21.80;1.00
48936;DHT22;34745;52.276;10.528;2022-08-21T09:23:46;21.80;1.00
48936;DHT22;34745;52.276;10.528;2022-08-21T09:26:18;21.80;1.00
48936;DHT22;34745;52.276;10.528;2022-08-21T09:28:46;21.90;1.00
48936;DHT22;34745;52.276;10.528;2022-08-21T09:31:23;22.00;1.00
48936;DHT22;34745;52.276;10.528;2022-08-21T09:33:57;22.00;1.00
48936;DHT22;34745;52.276;10.528;2022-08-21T09:36:33;21.90;1.00
48936;DHT22;34745;52.276;10.528;2022-08-21T09:39:00;21.90;1.00
48936;DHT22;34745;52.276;10.528;2022-08-21T09:41:28;22.00;1.00
48936;DHT22;34745;52.276;10.528;2022-08-21T09:43:56;21.90;1.00
48936;DHT22;34745;52.276;10.528;2022-08-21T09:46:26;21.90;1.00
48936;DHT22;34745;52.276;10.528;2022-08-21T09:48:55;22.00;1.00
48936;DHT22;34745;52.276;10.528;2022-08-21T09:51:26;21.90;1.00
48936;DHT22;34745;52.276;10.528;2022-08-21T09:53:55;21.80;1.00
48936;DHT22;34745;52.276;10.528;2022-08-21T09:56:29;21.90;1.00
48936;DHT22;34745;52.276;10.528;2022-08-21T09:59:17;21.90;1.00
48936;DHT22;34745;52.276;10.528;2022-08-21T10:01:49;21.90;1.00
48936;DHT22;34745;52.276;10.528;2022-08-21T10:04:21;21.90;1.00
48936;DHT22;34745;52.276;10.528;2022-08-21T10:06:49;21.90;1.00
48936;DHT22;34745;52.276;10.528;2022-08-21T10:09:18;21.90;1.00
48936;DHT22;34745;52.276;10.528;2022-08-21T10:11:54;21.90;1.00
48936;DHT22;34745;52.276;10.528;2022-08-21T10:14:35;22.00;1.00
48936;DHT22;34745;52.276;10.528;2022-08-21T10:17:15;22.00;1.00
48936;DHT22;34745;52.276;10.528;2022-08-21T10:19:50;22.10;1.00
48936;DHT22;34745;52.276;10.528;2022-08-21T10:22:32;22.10;1.00
48936;DHT22;34745;52.276;10.528;2022-08-21T10:25:08;22.10;1.00
48936;DHT22;34745;52.276;10.528;2022-08-21T10:27:47;22.30;1.00
48936;DHT22;34745;52.276;10.528;2022-08-21T10:30:20;22.40;1.00
48936;DHT22;34745;52.276;10.528;2022-08-21T10:33:02;22.40;1.00
48936;DHT22;34745;52.276;10.528;2022-08-21T10:35:34;22.40;1.00
48936;DHT22;34745;52.276;10.528;2022-08-21T10:38:34;22.40;1.00
48936;DHT22;34745;52.276;10.528;2022-08-21T10:41:40;22.40;1.00
48936;DHT22;34745;52.276;10.528;2022-08-21T10:44:17;22.30;1.00
48936;DHT22;34745;52.276;10.528;2022-08-21T10:46:53;22.40;1.00
48936;DHT22;34745;52.276;10.528;2022-08-21T10:49:31;22.60;1.00
48936;DHT22;34745;52.276;10.528;2022-08-21T10:52:16;22.70;1.00
48936;DHT22;34745;52.276;10.528;2022-08-21T10:54:52;22.90;1.00
48936;DHT22;34745;52.276;10.528;2022-08-21T10:57:24;22.80;1.00
48936;DHT22;34745;52.276;10.528;2022-08-21T11:00:02;22.80;1.00
48936;DHT22;34745;52.276;10.528;2022-08-21T11:02:35;22.80;1.00
48936;DHT22;34745;52.276;10.528;2022-08-21T11:05:09;22.80;1.00
48936;DHT22;34745;52.276;10.528;2022-08-21T11:07:43;22.80;1.00
48936;DHT22;34745;52.276;10.528;2022-08-21T11:10:20;22.90;1.00
48936;DHT22;34745;52.276;10.528;2022-08-21T11:12:52;22.80;1.00
48936;DHT22;34745;52.276;10.528;2022-08-21T11:15:29;22.90;1.00
48936;DHT22;34745;52.276;10.528;2022-08-21T11:18:10;22.90;1.00
48936;DHT22;34745;52.276;10.528;2022-08-21T11:20:49;23.10;1.00
48936;DHT22;34745;52.276;10.528;2022-08-21T11:23:23;23.40;1.00
48936;DHT22;34745;52.276;10.528;2022-08-21T11:25:55;23.40;1.00
48936;DHT22;34745;52.276;10.528;2022-08-21T11:28:28;23.40;1.00
48936;DHT22;34745;52.276;10.528;2022-08-21T11:31:05;23.30;1.00
48936;DHT22;34745;52.276;10.528;2022-08-21T11:33:47;23.30;1.00
48936;DHT22;34745;52.276;10.528;2022-08-21T11:36:24;23.50;1.00
48936;DHT22;34745;52.276;10.528;2022-08-21T11:39:00;23.60;99.90
48936;DHT22;34745;52.276;10.528;2022-08-21T11:41:30;23.80;1.00
48936;DHT22;34745;52.276;10.528;2022-08-21T11:44:09;23.90;99.90
48936;DHT22;34745;52.276;10.528;2022-08-21T11:46:46;24.10;99.90
48936;DHT22;34745;52.276;10.528;2022-08-21T11:49:25;24.50;99.90
48936;DHT22;34745;52.276;10.528;2022-08-21T11:52:07;24.50;99.90
48936;DHT22;34745;52.276;10.528;2022-08-21T11:54:39;24.40;99.90
48936;DHT22;34745;52.276;10.528;2022-08-21T11:57:14;24.20;99.90
48936;DHT22;34745;52.276;10.528;2022-08-21T11:59:47;24.00;99.90
48936;DHT22;34745;52.276;10.528;2022-08-21T12:02:20;24.30;99.90
48936;DHT22;34745;52.276;10.528;2022-08-21T12:04:52;24.60;99.90
48936;DHT22;34745;52.276;10.528;2022-08-21T12:07:33;24.80;99.90
48936;DHT22;34745;52.276;10.528;2022-08-21T12:10:05;24.80;99.90
48936;DHT22;34745;52.276;10.528;2022-08-21T12:12:34;25.00;99.90
48936;DHT22;34745;52.276;10.528;2022-08-21T12:15:15;25.30;99.90
48936;DHT22;34745;52.276;10.528;2022-08-21T12:17:53;25.80;99.90
48936;DHT22;34745;52.276;10.528;2022-08-21T12:20:40;26.20;99.90
48936;DHT22;34745;52.276;10.528;2022-08-21T12:23:25;26.30;99.90
48936;DHT22;34745;52.276;10.528;2022-08-21T12:26:03;26.50;99.90
48936;DHT22;34745;52.276;10.528;2022-08-21T12:28:35;26.80;99.90
48936;DHT22;34745;52.276;10.528;2022-08-21T12:31:03;26.80;99.90
48936;DHT22;34745;52.276;10.528;2022-08-21T12:33:32;27.20;99.90
48936;DHT22;34745;52.276;10.528;2022-08-21T12:36:07;27.20;99.90
48936;DHT22;34745;52.276;10.528;2022-08-21T12:38:45;27.10;99.90
48936;DHT22;34745;52.276;10.528;2022-08-21T12:41:18;26.80;99.90
48936;DHT22;34745;52.276;10.528;2022-08-21T12:43:48;27.00;99.90
48936;DHT22;34745;52.276;10.528;2022-08-21T12:46:21;27.20;99.90
48936;DHT22;34745;52.276;10.528;2022-08-21T12:48:52;27.10;99.90
48936;DHT22;34745;52.276;10.528;2022-08-21T12:51:28;27.20;99.90
48936;DHT22;34745;52.276;10.528;2022-08-21T12:53:59;27.20;99.90
48936;DHT22;34745;52.276;10.528;2022-08-21T12:56:29;27.30;99.90
48936;DHT22;34745;52.276;10.528;2022-08-21T12:59:01;27.50;99.90
48936;DHT22;34745;52.276;10.528;2022-08-21T13:01:32;27.90;99.90
48936;DHT22;34745;52.276;10.528;2022-08-21T13:04:09;28.00;99.90
48936;DHT22;34745;52.276;10.528;2022-08-21T13:06:38;28.00;99.90
48936;DHT22;34745;52.276;10.528;2022-08-21T13:09:10;28.50;99.90
48936;DHT22;34745;52.276;10.528;2022-08-21T13:11:39;28.70;99.90
48936;DHT22;34745;52.276;10.528;2022-08-21T13:14:13;29.00;99.90
48936;DHT22;34745;52.276;10.528;2022-08-21T13:16:43;28.90;99.90
48936;DHT22;34745;52.276;10.528;2022-08-21T13:19:15;28.80;99.90
48936;DHT22;34745;52.276;10.528;2022-08-21T13:21:50;28.70;99.90
48936;DHT22;34745;52.276;10.528;2022-08-21T13:24:25;28.10;99.90
48936;DHT22;34745;52.276;10.528;2022-08-21T13:27:18;28.10;99.90
48936;DHT22;34745;52.276;10.528;2022-08-21T13:29:46;28.70;99.90
48936;DHT22;34745;52.276;10.528;2022-08-21T13:32:23;29.00;99.90
48936;DHT22;34745;52.276;10.528;2022-08-21T13:34:52;28.90;99.90
48936;DHT22;34745;52.276;10.528;2022-08-21T13:37:21;28.30;99.90
48936;DHT22;34745;52.276;10.528;2022-08-21T13:39:52;28.20;99.90
48936;DHT22;34745;52.276;10.528;2022-08-21T13:42:20;28.00;99.90
48936;DHT22;34745;52.276;10.528;2022-08-21T13:44:47;27.60;99.90
48936;DHT22;34745;52.276;10.528;2022-08-21T13:47:16;28.10;99.90
48936;DHT22;34745;52.276;10.528;2022-08-21T13:49:46;28.20;99.90
48936;DHT22;34745;52.276;10.528;2022-08-21T13:52:15;28.80;99.90
48936;DHT22;34745;52.276;10.528;2022-08-21T13:54:42;29.00;99.90
48936;DHT22;34745;52.276;10.528;2022-08-21T13:57:18;29.20;99.90
48936;DHT22;34745;52.276;10.528;2022-08-21T13:59:45;29.40;99.90
48936;DHT22;34745;52.276;10.528;2022-08-21T14:02:15;29.60;99.90
48936;DHT22;34745;52.276;10.528;2022-08-21T14:04:50;29.40;99.90
48936;DHT22;34745;52.276;10.528;2022-08-21T14:07:24;29.10;99.90
48936;DHT22;34745;52.276;10.528;2022-08-21T14:09:53;29.20;99.90
48936;DHT22;34745;52.276;10.528;2022-08-21T14:12:27;29.40;99.90
48936;DHT22;34745;52.276;10.528;2022-08-21T14:14:56;29.60;99.90
48936;DHT22;34745;52.276;10.528;2022-08-21T14:17:28;29.80;99.90
48936;DHT22;34745;52.276;10.528;2022-08-21T14:20:00;29.70;99.90
48936;DHT22;34745;52.276;10.528;2022-08-21T14:22:38;29.70;99.90
48936;DHT22;34745;52.276;10.528;2022-08-21T14:25:08;29.60;99.90
48936;DHT22;34745;52.276;10.528;2022-08-21T14:27:44;29.90;99.90
48936;DHT22;34745;52.276;10.528;2022-08-21T14:30:17;30.10;99.90
48936;DHT22;34745;52.276;10.528;2022-08-21T14:32:45;30.20;99.90
48936;DHT22;34745;52.276;10.528;2022-08-21T14:35:14;30.40;99.90
48936;DHT22;34745;52.276;10.528;2022-08-21T14:37:50;30.30;99.90
48936;DHT22;34745;52.276;10.528;2022-08-21T14:40:18;30.10;99.90
48936;DHT22;34745;52.276;10.528;2022-08-21T14:42:47;30.40;99.90
48936;DHT22;34745;52.276;10.528;2022-08-21T14:45:18;30.40;99.90
48936;DHT22;34745;52.276;10.528;2022-08-21T14:47:53;29.80;99.90
48936;DHT22;34745;52.276;10.528;2022-08-21T14:50:24;29.90;99.90
48936;DHT22;34745;52.276;10.528;2022-08-21T14:52:54;30.00;99.90
48936;DHT22;34745;52.276;10.528;2022-08-21T14:55:21;30.10;99.90
48936;DHT22;34745;52.276;10.528;2022-08-21T14:57:51;30.00;99.90
48936;DHT22;34745;52.276;10.528;2022-08-21T15:00:21;30.00;99.90
48936;DHT22;34745;52.276;10.528;2022-08-21T15:03:01;30.30;99.90
48936;DHT22;34745;52.276;10.528;2022-08-21T15:05:28;30.00;99.90
48936;DHT22;34745;52.276;10.528;2022-08-21T15:08:00;29.90;99.90
48936;DHT22;34745;52.276;10.528;2022-08-21T15:10:27;30.00;99.90
48936;DHT22;34745;52.276;10.528;2022-08-21T15:12:57;29.40;99.90
48936;DHT22;34745;52.276;10.528;2022-08-21T15:15:25;28.70;99.90
48936;DHT22;34745;52.276;10.528;2022-08-21T15:17:52;29.00;99.90
48936;DHT22;34745;52.276;10.528;2022-08-21T15:20:19;29.60;99.90
48936;DHT22;34745;52.276;10.528;2022-08-21T15:22:46;29.60;99.90
48936;DHT22;34745;52.276;10.528;2022-08-21T15:25:14;30.00;99.90
48936;DHT22;34745;52.276;10.528;2022-08-21T15:27:41;30.10;99.90
48936;DHT22;34745;52.276;10.528;2022-08-21T15:30:11;29.90;99.90
48936;DHT22;34745;52.276;10.528;2022-08-21T15:32:38;30.00;99.90
48936;DHT22;34745;52.276;10.528;2022-08-21T15:35:06;30.50;99.90
48936;DHT22;34745;52.276;10.528;2022-08-21T15:37:34;30.90;99.90
48936;DHT22;34745;52.276;10.528;2022-08-21T15:40:03;31.10;99.90
48936;DHT22;34745;52.276;10.528;2022-08-21T15:42:33;31.30;99.90
48936;DHT22;34745;52.276;10.528;2022-08-21T15:45:02;31.20;99.90
48936;DHT22;34745;52.276;10.528;2022-08-21T15:47:34;30.90;99.90
48936;DHT22;34745;52.276;10.528;2022-08-21T15:50:02;29.80;99.90
48936;DHT22;34745;52.276;10.528;2022-08-21T15:52:30;29.60;99.90